CYXJ

Fort St John Airport

Fort St.John, British Columbia, Canada
METAR CYXJ 221800Z 27010KT 60SM FEW055 SCT075 SCT100 05/M02 A3021 RMK SC2AC1AC1 SLP261
Observed Flight Rules
Apr-22 @ 18:00 UTC (16 minutes ago) Visual Flight Rules
Wind Visibility Clouds
270° at 10 knots 60 miles
  • Few at 5,500' AGL
  • Scattered at 7,500' AGL
  • Scattered at 10,000' AGL
Temperatures Readings
Current 5°C / 41°F
Dewpoint -2°C / 28°F
Humidity 61%
Altimeter 30.21" Hg
Pressure 1026.1 hPa
Elevation 695
METAR CYXJ 221800Z 27010KT 60SM FEW055 SCT075 SCT100 05/M02 A3021 RMK SC2AC1AC1 SLP261
Observed Flight Rules
Apr-22 @ 18:00 UTC
(16 minutes ago)
VFR
Wind Visibility
270° at 10 knots 60 miles
Clouds
  • Few at 5,500' AGL
  • Scattered at 7,500' AGL
  • Scattered at 10,000' AGL
Temperature Dewpoint
5°C / 41°F -2°C / 28°F
Humidity Altimeter Pressure
61% 30.21" Hg 1026.1 hPa